sensor_id;sensor_type;location;lat;lon;timestamp;pressure;altitude;pressure_sealevel;temperature;humidity
56270;BME280;42176;43.240;27.880;2022-11-20T00:00:45;99851.28;;;17.17;100.00
56270;BME280;42176;43.240;27.880;2022-11-20T00:03:12;99829.53;;;17.24;100.00
56270;BME280;42176;43.240;27.880;2022-11-20T00:05:37;99831.97;;;17.28;100.00
56270;BME280;42176;43.240;27.880;2022-11-20T00:08:03;99821.25;;;17.28;100.00
56270;BME280;42176;43.240;27.880;2022-11-20T00:10:29;99806.03;;;17.29;100.00
56270;BME280;42176;43.240;27.880;2022-11-20T00:12:55;99800.84;;;17.26;100.00
56270;BME280;42176;43.240;27.880;2022-11-20T00:15:20;99799.91;;;17.27;100.00
56270;BME280;42176;43.240;27.880;2022-11-20T00:17:46;99801.19;;;17.19;100.00
56270;BME280;42176;43.240;27.880;2022-11-20T00:20:11;99810.16;;;17.18;100.00
56270;BME280;42176;43.240;27.880;2022-11-20T00:22:38;99817.56;;;17.13;100.00
56270;BME280;42176;43.240;27.880;2022-11-20T00:25:03;99812.84;;;17.18;100.00
56270;BME280;42176;43.240;27.880;2022-11-20T00:27:29;99805.69;;;17.19;100.00
56270;BME280;42176;43.240;27.880;2022-11-20T00:29:54;99794.25;;;17.15;100.00
56270;BME280;42176;43.240;27.880;2022-11-20T00:32:20;99802.66;;;17.09;100.00
56270;BME280;42176;43.240;27.880;2022-11-20T00:34:46;99802.56;;;17.11;100.00
56270;BME280;42176;43.240;27.880;2022-11-20T00:37:11;99817.56;;;17.13;100.00
56270;BME280;42176;43.240;27.880;2022-11-20T00:39:36;99801.50;;;17.13;100.00
56270;BME280;42176;43.240;27.880;2022-11-20T00:42:02;99806.88;;;17.13;100.00
56270;BME280;42176;43.240;27.880;2022-11-20T00:44:27;99819.38;;;16.97;100.00
56270;BME280;42176;43.240;27.880;2022-11-20T00:46:53;99823.75;;;16.98;100.00
56270;BME280;42176;43.240;27.880;2022-11-20T00:49:18;99816.19;;;17.06;100.00
56270;BME280;42176;43.240;27.880;2022-11-20T00:51:43;99814.63;;;17.02;100.00
56270;BME280;42176;43.240;27.880;2022-11-20T00:54:09;99813.25;;;16.95;100.00
56270;BME280;42176;43.240;27.880;2022-11-20T00:56:35;99807.22;;;16.89;100.00
56270;BME280;42176;43.240;27.880;2022-11-20T00:59:00;99811.09;;;16.84;100.00
56270;BME280;42176;43.240;27.880;2022-11-20T01:01:27;99811.72;;;16.89;100.00
56270;BME280;42176;43.240;27.880;2022-11-20T01:03:56;99818.59;;;16.95;100.00
56270;BME280;42176;43.240;27.880;2022-11-20T01:06:30;99807.13;;;16.91;100.00
56270;BME280;42176;43.240;27.880;2022-11-20T01:08:58;99811.16;;;17.00;100.00
56270;BME280;42176;43.240;27.880;2022-11-20T01:11:26;99824.66;;;16.98;100.00
56270;BME280;42176;43.240;27.880;2022-11-20T01:13:53;99824.66;;;16.98;100.00
56270;BME280;42176;43.240;27.880;2022-11-20T01:16:20;99830.78;;;17.00;100.00
56270;BME280;42176;43.240;27.880;2022-11-20T01:18:48;99811.16;;;17.00;100.00
56270;BME280;42176;43.240;27.880;2022-11-20T01:21:25;99817.41;;;17.00;100.00
56270;BME280;42176;43.240;27.880;2022-11-20T01:23:51;99804.06;;;16.99;100.00
56270;BME280;42176;43.240;27.880;2022-11-20T01:26:19;99817.31;;;17.02;100.00
56270;BME280;42176;43.240;27.880;2022-11-20T01:28:45;99797.78;;;17.00;100.00
56270;BME280;42176;43.240;27.880;2022-11-20T01:31:13;99811.94;;;17.02;100.00
56270;BME280;42176;43.240;27.880;2022-11-20T01:33:40;99804.44;;;17.09;100.00
56270;BME280;42176;43.240;27.880;2022-11-20T01:36:06;99809.63;;;17.12;100.00
56270;BME280;42176;43.240;27.880;2022-11-20T01:38:32;99804.03;;;17.16;100.00
56270;BME280;42176;43.240;27.880;2022-11-20T01:40:58;99801.19;;;17.19;100.00
56270;BME280;42176;43.240;27.880;2022-11-20T01:43:23;99797.72;;;17.17;100.00
56270;BME280;42176;43.240;27.880;2022-11-20T01:46:15;99791.69;;;17.14;100.00
56270;BME280;42176;43.240;27.880;2022-11-20T01:48:50;99785.13;;;17.19;100.00
56270;BME280;42176;43.240;27.880;2022-11-20T01:51:35;99790.16;;;17.26;100.00
56270;BME280;42176;43.240;27.880;2022-11-20T01:54:07;99790.47;;;17.19;100.00
56270;BME280;42176;43.240;27.880;2022-11-20T01:56:38;99803.97;;;17.34;100.00
56270;BME280;42176;43.240;27.880;2022-11-20T01:59:05;99807.44;;;17.36;100.00
56270;BME280;42176;43.240;27.880;2022-11-20T02:01:32;99812.63;;;17.39;100.00
56270;BME280;42176;43.240;27.880;2022-11-20T02:03:58;99801.75;;;17.42;100.00
56270;BME280;42176;43.240;27.880;2022-11-20T02:07:00;99802.44;;;17.46;100.00
56270;BME280;42176;43.240;27.880;2022-11-20T02:09:26;99803.28;;;17.46;100.00
56270;BME280;42176;43.240;27.880;2022-11-20T02:11:52;99801.22;;;17.52;100.00
56270;BME280;42176;43.240;27.880;2022-11-20T02:14:18;99790.66;;;17.48;100.00
56270;BME280;42176;43.240;27.880;2022-11-20T02:16:46;99789.72;;;17.49;100.00
56270;BME280;42176;43.240;27.880;2022-11-20T02:19:26;99797.59;;;17.53;100.00
56270;BME280;42176;43.240;27.880;2022-11-20T02:22:02;99798.38;;;17.55;100.00
56270;BME280;42176;43.240;27.880;2022-11-20T02:24:31;99795.53;;;17.58;100.00
56270;BME280;42176;43.240;27.880;2022-11-20T02:27:02;99804.13;;;17.63;100.00
56270;BME280;42176;43.240;27.880;2022-11-20T02:29:37;99798.78;;;17.63;100.00
56270;BME280;42176;43.240;27.880;2022-11-20T02:32:05;99793.41;;;17.63;100.00
56270;BME280;42176;43.240;27.880;2022-11-20T02:34:30;99796.72;;;17.68;100.00
56270;BME280;42176;43.240;27.880;2022-11-20T02:36:56;99796.03;;;17.64;100.00
56270;BME280;42176;43.240;27.880;2022-11-20T02:39:24;99794.47;;;17.60;100.00
56270;BME280;42176;43.240;27.880;2022-11-20T02:41:55;99797.41;;;17.56;100.00
56270;BME280;42176;43.240;27.880;2022-11-20T02:44:21;99790.16;;;17.58;100.00
56270;BME280;42176;43.240;27.880;2022-11-20T02:46:46;99795.53;;;17.58;100.00
56270;BME280;42176;43.240;27.880;2022-11-20T02:49:12;99779.25;;;17.61;100.00
56270;BME280;42176;43.240;27.880;2022-11-20T02:51:37;99778.38;;;17.60;100.00
56270;BME280;42176;43.240;27.880;2022-11-20T02:54:03;99765.09;;;17.59;100.00
56270;BME280;42176;43.240;27.880;2022-11-20T02:56:28;99768.22;;;17.51;100.00
56270;BME280;42176;43.240;27.880;2022-11-20T02:58:54;99770.78;;;17.53;100.00
56270;BME280;42176;43.240;27.880;2022-11-20T03:01:19;99760.06;;;17.53;100.00
56270;BME280;42176;43.240;27.880;2022-11-20T03:03:45;99761.63;;;17.57;100.00
56270;BME280;42176;43.240;27.880;2022-11-20T03:06:10;99774.06;;;17.58;100.00
56270;BME280;42176;43.240;27.880;2022-11-20T03:08:36;99782.13;;;17.58;100.00
56270;BME280;42176;43.240;27.880;2022-11-20T03:11:04;99770.78;;;17.53;100.00
56270;BME280;42176;43.240;27.880;2022-11-20T03:13:29;99769.06;;;17.52;100.00
56270;BME280;42176;43.240;27.880;2022-11-20T03:15:55;99764.75;;;17.49;100.00
56270;BME280;42176;43.240;27.880;2022-11-20T03:18:20;99772.69;;;17.50;100.00
56270;BME280;42176;43.240;27.880;2022-11-20T03:20:46;99757.56;;;17.49;100.00
56270;BME280;42176;43.240;27.880;2022-11-20T03:23:11;99763.59;;;17.53;100.00
56270;BME280;42176;43.240;27.880;2022-11-20T03:25:37;99757.50;;;17.51;100.00
56270;BME280;42176;43.240;27.880;2022-11-20T03:28:02;99757.72;;;17.46;100.00
56270;BME280;42176;43.240;27.880;2022-11-20T03:30:28;99757.94;;;17.43;100.00
56270;BME280;42176;43.240;27.880;2022-11-20T03:32:54;99758.09;;;17.40;100.00
56270;BME280;42176;43.240;27.880;2022-11-20T03:35:19;99739.66;;;17.34;100.00
56270;BME280;42176;43.240;27.880;2022-11-20T03:37:45;99758.88;;;17.42;100.00
56270;BME280;42176;43.240;27.880;2022-11-20T03:40:11;99752.63;;;17.42;100.00
56270;BME280;42176;43.240;27.880;2022-11-20T03:42:37;99750.84;;;17.42;100.00
56270;BME280;42176;43.240;27.880;2022-11-20T03:45:16;99749.09;;;17.41;100.00
56270;BME280;42176;43.240;27.880;2022-11-20T03:47:43;99752.56;;;17.43;100.00
56270;BME280;42176;43.240;27.880;2022-11-20T03:50:10;99742.78;;;17.42;100.00
56270;BME280;42176;43.240;27.880;2022-11-20T03:52:37;99736.50;;;17.43;100.00
56270;BME280;42176;43.240;27.880;2022-11-20T03:55:04;99736.38;;;17.45;100.00
56270;BME280;42176;43.240;27.880;2022-11-20T03:57:29;99745.28;;;17.45;100.00
56270;BME280;42176;43.240;27.880;2022-11-20T03:59:55;99736.38;;;17.45;100.00
56270;BME280;42176;43.240;27.880;2022-11-20T04:02:20;99736.28;;;17.46;100.00
56270;BME280;42176;43.240;27.880;2022-11-20T04:04:46;99737.06;;;17.48;100.00
56270;BME280;42176;43.240;27.880;2022-11-20T04:07:11;99737.06;;;17.48;100.00
56270;BME280;42176;43.240;27.880;2022-11-20T04:09:37;99735.34;;;17.47;100.00
56270;BME280;42176;43.240;27.880;2022-11-20T04:12:02;99723.66;;;17.48;100.00
56270;BME280;42176;43.240;27.880;2022-11-20T04:14:28;99722.56;;;17.53;100.00
56270;BME280;42176;43.240;27.880;2022-11-20T04:16:53;99713.72;;;17.50;100.00
56270;BME280;42176;43.240;27.880;2022-11-20T04:19:18;99702.84;;;17.54;100.00
56270;BME280;42176;43.240;27.880;2022-11-20T04:21:44;99700.16;;;17.54;100.00
56270;BME280;42176;43.240;27.880;2022-11-20T04:24:10;99695.75;;;17.53;100.00
56270;BME280;42176;43.240;27.880;2022-11-20T04:26:36;99692.19;;;17.52;100.00
56270;BME280;42176;43.240;27.880;2022-11-20T04:29:02;99690.56;;;17.49;100.00
56270;BME280;42176;43.240;27.880;2022-11-20T04:31:30;99696.81;;;17.50;100.00
56270;BME280;42176;43.240;27.880;2022-11-20T04:33:58;99698.59;;;17.49;100.00
56270;BME280;42176;43.240;27.880;2022-11-20T04:36:26;99690.41;;;17.53;100.00
56270;BME280;42176;43.240;27.880;2022-11-20T04:38:53;99689.50;;;17.52;100.00
56270;BME280;42176;43.240;27.880;2022-11-20T04:41:21;99697.47;;;17.54;100.00
56270;BME280;42176;43.240;27.880;2022-11-20T04:43:48;99702.84;;;17.54;100.00
56270;BME280;42176;43.240;27.880;2022-11-20T04:46:14;99701.91;;;17.55;100.00
56270;BME280;42176;43.240;27.880;2022-11-20T04:48:39;99701.97;;;17.53;100.00
56270;BME280;42176;43.240;27.880;2022-11-20T04:51:05;99702.66;;;17.57;100.00
56270;BME280;42176;43.240;27.880;2022-11-20T04:53:31;99709.75;;;17.58;100.00
56270;BME280;42176;43.240;27.880;2022-11-20T04:56:00;99701.91;;;17.55;100.00
56270;BME280;42176;43.240;27.880;2022-11-20T04:58:26;99704.41;;;17.58;100.00
56270;BME280;42176;43.240;27.880;2022-11-20T05:00:51;99708.72;;;17.60;100.00
56270;BME280;42176;43.240;27.880;2022-11-20T05:03:17;99698.84;;;17.61;100.00
56270;BME280;42176;43.240;27.880;2022-11-20T05:05:42;99697.31;;;17.57;100.00
56270;BME280;42176;43.240;27.880;2022-11-20T05:08:08;99697.09;;;17.60;100.00
56270;BME280;42176;43.240;27.880;2022-11-20T05:10:33;99699.03;;;17.58;100.00
56270;BME280;42176;43.240;27.880;2022-11-20T05:12:59;99692.97;;;17.54;100.00
56270;BME280;42176;43.240;27.880;2022-11-20T05:15:24;99698.53;;;17.51;100.00
56270;BME280;42176;43.240;27.880;2022-11-20T05:17:51;99717.03;;;17.56;100.00
56270;BME280;42176;43.240;27.880;2022-11-20T05:20:17;99713.56;;;17.54;100.00
56270;BME280;42176;43.240;27.880;2022-11-20T05:22:43;99711.50;;;17.59;100.00
56270;BME280;42176;43.240;27.880;2022-11-20T05:25:10;99709.56;;;17.61;100.00
56270;BME280;42176;43.240;27.880;2022-11-20T05:27:35;99702.47;;;17.60;100.00
56270;BME280;42176;43.240;27.880;2022-11-20T05:30:01;99706.97;;;17.59;100.00
56270;BME280;42176;43.240;27.880;2022-11-20T05:32:27;99707.81;;;17.60;100.00
56270;BME280;42176;43.240;27.880;2022-11-20T05:34:52;99710.78;;;17.55;100.00
56270;BME280;42176;43.240;27.880;2022-11-20T05:37:18;99721.06;;;17.63;100.00
56270;BME280;42176;43.240;27.880;2022-11-20T05:39:43;99728.53;;;17.58;100.00
56270;BME280;42176;43.240;27.880;2022-11-20T05:42:09;99734.63;;;17.60;100.00
56270;BME280;42176;43.240;27.880;2022-11-20T05:44:54;99733.44;;;17.65;100.00
56270;BME280;42176;43.240;27.880;2022-11-20T05:47:20;99729.81;;;17.67;100.00
56270;BME280;42176;43.240;27.880;2022-11-20T05:49:45;99734.78;;;17.73;100.00
56270;BME280;42176;43.240;27.880;2022-11-20T05:52:11;99725.97;;;17.71;100.00
56270;BME280;42176;43.240;27.880;2022-11-20T05:54:36;99725.91;;;17.72;99.78
56270;BME280;42176;43.240;27.880;2022-11-20T05:57:01;99730.09;;;17.76;99.81
56270;BME280;42176;43.240;27.880;2022-11-20T05:59:27;99735.47;;;17.76;99.56
56270;BME280;42176;43.240;27.880;2022-11-20T06:01:52;99738.75;;;17.81;99.03
56270;BME280;42176;43.240;27.880;2022-11-20T06:04:18;99738.75;;;17.81;98.87
56270;BME280;42176;43.240;27.880;2022-11-20T06:06:43;99741.88;;;17.90;98.52
56270;BME280;42176;43.240;27.880;2022-11-20T06:09:08;99748.75;;;17.94;98.24
56270;BME280;42176;43.240;27.880;2022-11-20T06:11:34;99745.81;;;17.99;97.52
56270;BME280;42176;43.240;27.880;2022-11-20T06:13:59;99754.47;;;18.04;97.23
56270;BME280;42176;43.240;27.880;2022-11-20T06:16:25;99731.28;;;18.03;96.48
56270;BME280;42176;43.240;27.880;2022-11-20T06:18:50;99732.47;;;18.13;96.68
56270;BME280;42176;43.240;27.880;2022-11-20T06:21:20;99747.53;;;18.16;96.06
56270;BME280;42176;43.240;27.880;2022-11-20T06:23:48;99758.06;;;18.19;95.83
56270;BME280;42176;43.240;27.880;2022-11-20T06:26:16;99761.53;;;18.21;95.90
56270;BME280;42176;43.240;27.880;2022-11-20T06:28:42;99753.38;;;18.22;95.27
56270;BME280;42176;43.240;27.880;2022-11-20T06:31:10;99758.56;;;18.25;95.39
56270;BME280;42176;43.240;27.880;2022-11-20T06:33:36;99751.19;;;18.29;95.05
56270;BME280;42176;43.240;27.880;2022-11-20T06:36:03;99753.41;;;18.37;94.32
56270;BME280;42176;43.240;27.880;2022-11-20T06:38:29;99758.13;;;18.48;93.54
56270;BME280;42176;43.240;27.880;2022-11-20T06:40:55;99746.81;;;18.57;93.10
56270;BME280;42176;43.240;27.880;2022-11-20T06:43:21;99747.09;;;18.67;92.54
56270;BME280;42176;43.240;27.880;2022-11-20T06:45:54;99751.22;;;18.72;91.68
56270;BME280;42176;43.240;27.880;2022-11-20T06:48:20;99748.00;;;18.67;91.48
56270;BME280;42176;43.240;27.880;2022-11-20T06:50:46;99745.88;;;18.72;91.40
56270;BME280;42176;43.240;27.880;2022-11-20T06:53:11;99755.09;;;18.83;90.63
56270;BME280;42176;43.240;27.880;2022-11-20T06:55:37;99745.09;;;18.85;90.71
56270;BME280;42176;43.240;27.880;2022-11-20T06:58:06;99750.97;;;18.92;90.23
56270;BME280;42176;43.240;27.880;2022-11-20T07:00:32;99752.97;;;18.88;89.53
56270;BME280;42176;43.240;27.880;2022-11-20T07:03:02;99742.97;;;18.90;89.32
56270;BME280;42176;43.240;27.880;2022-11-20T07:05:50;99752.63;;;18.94;89.34
56270;BME280;42176;43.240;27.880;2022-11-20T07:08:15;99761.03;;;19.02;89.23
56270;BME280;42176;43.240;27.880;2022-11-20T07:10:41;99747.03;;;19.12;88.49
56270;BME280;42176;43.240;27.880;2022-11-20T07:13:06;99745.31;;;19.11;87.99
56270;BME280;42176;43.240;27.880;2022-11-20T07:15:32;99738.41;;;19.07;88.40
56270;BME280;42176;43.240;27.880;2022-11-20T07:18:00;99753.09;;;19.01;88.31
56270;BME280;42176;43.240;27.880;2022-11-20T07:20:26;99758.16;;;19.06;88.69
56270;BME280;42176;43.240;27.880;2022-11-20T07:22:55;99749.53;;;19.00;87.81
56270;BME280;42176;43.240;27.880;2022-11-20T07:25:25;99733.69;;;18.81;88.97
56270;BME280;42176;43.240;27.880;2022-11-20T07:27:51;99743.66;;;18.94;89.54
56270;BME280;42176;43.240;27.880;2022-11-20T07:30:17;99758.75;;;18.96;89.02
56270;BME280;42176;43.240;27.880;2022-11-20T07:32:46;99754.91;;;19.00;88.65
56270;BME280;42176;43.240;27.880;2022-11-20T07:35:11;99754.03;;;19.00;88.28
56270;BME280;42176;43.240;27.880;2022-11-20T07:37:37;99751.81;;;19.07;88.13
56270;BME280;42176;43.240;27.880;2022-11-20T07:40:03;99752.41;;;19.12;88.36
56270;BME280;42176;43.240;27.880;2022-11-20T07:42:28;99754.25;;;19.81;86.41
56270;BME280;42176;43.240;27.880;2022-11-20T07:44:54;99754.25;;;19.81;84.22
56270;BME280;42176;43.240;27.880;2022-11-20T07:47:20;99751.63;;;19.79;84.54
56270;BME280;42176;43.240;27.880;2022-11-20T07:49:46;99742.59;;;19.80;84.10
56270;BME280;42176;43.240;27.880;2022-11-20T07:52:13;99744.53;;;19.78;83.80
56270;BME280;42176;43.240;27.880;2022-11-20T07:54:39;99741.94;;;19.76;83.60
56270;BME280;42176;43.240;27.880;2022-11-20T07:57:13;99733.09;;;19.61;84.25
56270;BME280;42176;43.240;27.880;2022-11-20T07:59:41;99748.22;;;19.77;84.20
56270;BME280;42176;43.240;27.880;2022-11-20T08:02:11;99756.66;;;19.71;84.23
56270;BME280;42176;43.240;27.880;2022-11-20T08:04:36;99759.16;;;19.74;83.56
56270;BME280;42176;43.240;27.880;2022-11-20T08:07:02;99755.72;;;19.72;84.11
56270;BME280;42176;43.240;27.880;2022-11-20T08:09:30;99762.63;;;19.76;84.04
56270;BME280;42176;43.240;27.880;2022-11-20T08:11:59;99753.88;;;19.72;84.36
56270;BME280;42176;43.240;27.880;2022-11-20T08:14:44;99752.16;;;19.71;84.60
56270;BME280;42176;43.240;27.880;2022-11-20T08:17:09;99750.53;;;19.69;84.89
56270;BME280;42176;43.240;27.880;2022-11-20T08:19:35;99752.44;;;19.67;84.60
56270;BME280;42176;43.240;27.880;2022-11-20T08:22:01;99753.06;;;19.57;85.33
56270;BME280;42176;43.240;27.880;2022-11-20T08:24:26;99757.50;;;19.58;85.31
56270;BME280;42176;43.240;27.880;2022-11-20T08:26:57;99747.50;;;19.60;85.19
56270;BME280;42176;43.240;27.880;2022-11-20T08:29:24;99744.59;;;19.63;84.51
56270;BME280;42176;43.240;27.880;2022-11-20T08:31:49;99755.19;;;19.52;85.31
56270;BME280;42176;43.240;27.880;2022-11-20T08:34:17;99756.25;;;19.50;85.12
56270;BME280;42176;43.240;27.880;2022-11-20T08:36:45;99750.78;;;19.51;85.50
56270;BME280;42176;43.240;27.880;2022-11-20T08:39:12;99756.72;;;19.56;85.00
56270;BME280;42176;43.240;27.880;2022-11-20T08:41:41;99751.91;;;19.61;84.54
56270;BME280;42176;43.240;27.880;2022-11-20T08:44:07;99716.91;;;19.48;84.24
56270;BME280;42176;43.240;27.880;2022-11-20T08:46:38;99741.50;;;19.70;84.01
56270;BME280;42176;43.240;27.880;2022-11-20T08:49:05;99738.63;;;19.73;83.69
56270;BME280;42176;43.240;27.880;2022-11-20T08:51:31;99735.72;;;19.76;83.72
56270;BME280;42176;43.240;27.880;2022-11-20T08:53:58;99739.06;;;19.80;83.41
56270;BME280;42176;43.240;27.880;2022-11-20T08:56:25;99735.28;;;19.82;83.33
56270;BME280;42176;43.240;27.880;2022-11-20T08:58:57;99736.38;;;19.80;83.47
56270;BME280;42176;43.240;27.880;2022-11-20T09:01:25;99733.38;;;19.84;83.79
56270;BME280;42176;43.240;27.880;2022-11-20T09:03:58;99722.78;;;19.68;84.37
56270;BME280;42176;43.240;27.880;2022-11-20T09:06:25;99724.75;;;19.79;83.69
56270;BME280;42176;43.240;27.880;2022-11-20T09:08:54;99738.69;;;19.71;83.35
56270;BME280;42176;43.240;27.880;2022-11-20T09:11:19;99735.72;;;19.76;83.73
56270;BME280;42176;43.240;27.880;2022-11-20T09:13:45;99726.47;;;19.80;83.66
56270;BME280;42176;43.240;27.880;2022-11-20T09:16:10;99731.56;;;19.85;83.48
56270;BME280;42176;43.240;27.880;2022-11-20T09:18:37;99720.69;;;19.86;83.49
56270;BME280;42176;43.240;27.880;2022-11-20T09:21:05;99720.53;;;19.89;83.24
56270;BME280;42176;43.240;27.880;2022-11-20T09:23:33;99726.53;;;19.93;83.06
56270;BME280;42176;43.240;27.880;2022-11-20T09:26:04;99719.81;;;19.86;83.10
56270;BME280;42176;43.240;27.880;2022-11-20T09:28:30;99721.84;;;19.82;83.59
56270;BME280;42176;43.240;27.880;2022-11-20T09:30:56;99718.72;;;19.75;83.59
56270;BME280;42176;43.240;27.880;2022-11-20T09:33:25;99718.91;;;19.72;84.25
56270;BME280;42176;43.240;27.880;2022-11-20T09:35:51;99728.06;;;19.70;84.55
56270;BME280;42176;43.240;27.880;2022-11-20T09:38:19;99715.00;;;19.63;84.76
56270;BME280;42176;43.240;27.880;2022-11-20T09:40:57;99720.56;;;19.75;84.45
56270;BME280;42176;43.240;27.880;2022-11-20T09:51:58;99700.22;;;19.71;83.29
56270;BME280;42176;43.240;27.880;2022-11-20T09:54:32;99690.09;;;19.61;83.99
56270;BME280;42176;43.240;27.880;2022-11-20T09:57:03;99698.88;;;19.63;83.87
56270;BME280;42176;43.240;27.880;2022-11-20T09:59:42;99696.56;;;19.72;83.45
56270;BME280;42176;43.240;27.880;2022-11-20T10:04:53;99687.78;;;19.83;82.54
56270;BME280;42176;43.240;27.880;2022-11-20T10:07:27;99689.69;;;19.81;82.64
56270;BME280;42176;43.240;27.880;2022-11-20T10:09:55;99675.69;;;19.75;82.50
56270;BME280;42176;43.240;27.880;2022-11-20T10:15:15;99673.75;;;19.77;82.67
56270;BME280;42176;43.240;27.880;2022-11-20T10:26:17;99642.13;;;19.81;83.14
56270;BME280;42176;43.240;27.880;2022-11-20T10:29:06;99647.31;;;19.84;82.80
56270;BME280;42176;43.240;27.880;2022-11-20T10:31:56;99645.38;;;19.86;82.59
56270;BME280;42176;43.240;27.880;2022-11-20T10:37:16;99643.47;;;19.88;82.10
56270;BME280;42176;43.240;27.880;2022-11-20T10:40:06;99642.41;;;19.91;81.73
56270;BME280;42176;43.240;27.880;2022-11-20T10:48:16;99646.06;;;19.90;81.95
56270;BME280;42176;43.240;27.880;2022-11-20T10:53:54;99632.84;;;20.00;81.36
56270;BME280;42176;43.240;27.880;2022-11-20T10:59:38;99634.97;;;19.95;81.10
56270;BME280;42176;43.240;27.880;2022-11-20T11:02:18;99640.47;;;19.93;80.83
56270;BME280;42176;43.240;27.880;2022-11-20T11:04:47;99642.97;;;19.96;80.54
56270;BME280;42176;43.240;27.880;2022-11-20T11:07:35;99643.47;;;19.88;80.55
56270;BME280;42176;43.240;27.880;2022-11-20T11:10:01;99637.03;;;19.91;80.15
56270;BME280;42176;43.240;27.880;2022-11-20T11:12:28;99636.19;;;19.90;79.94
56270;BME280;42176;43.240;27.880;2022-11-20T11:14:55;99569.19;;;19.60;79.87
56270;BME280;42176;43.240;27.880;2022-11-20T11:17:30;99629.84;;;19.91;79.95
56270;BME280;42176;43.240;27.880;2022-11-20T11:22:24;99630.22;;;19.85;79.74
56270;BME280;42176;43.240;27.880;2022-11-20T11:24:53;99644.25;;;19.90;79.92
56270;BME280;42176;43.240;27.880;2022-11-20T11:27:19;99635.22;;;19.91;79.99
56270;BME280;42176;43.240;27.880;2022-11-20T11:29:45;99642.31;;;19.92;80.03
56270;BME280;42176;43.240;27.880;2022-11-20T11:32:18;99645.44;;;19.99;79.95
56270;BME280;42176;43.240;27.880;2022-11-20T11:34:44;99653.19;;;20.04;79.38
56270;BME280;42176;43.240;27.880;2022-11-20T11:37:17;99657.47;;;20.06;79.98
56270;BME280;42176;43.240;27.880;2022-11-20T11:39:46;99648.78;;;20.03;78.89
56270;BME280;42176;43.240;27.880;2022-11-20T11:42:17;99650.81;;;19.99;78.80
56270;BME280;42176;43.240;27.880;2022-11-20T11:44:45;99654.56;;;19.97;79.31
56270;BME280;42176;43.240;27.880;2022-11-20T11:47:36;99661.78;;;19.96;79.19
56270;BME280;42176;43.240;27.880;2022-11-20T11:58:16;99651.41;;;19.77;80.00
56270;BME280;42176;43.240;27.880;2022-11-20T12:00:48;99662.69;;;19.82;79.96
56270;BME280;42176;43.240;27.880;2022-11-20T12:03:20;99665.97;;;19.87;80.12
56270;BME280;42176;43.240;27.880;2022-11-20T12:05:57;99671.91;;;19.92;79.29
56270;BME280;42176;43.240;27.880;2022-11-20T12:16:13;99630.69;;;19.65;79.57
56270;BME280;42176;43.240;27.880;2022-11-20T12:18:40;99661.94;;;19.80;79.35
56270;BME280;42176;43.240;27.880;2022-11-20T12:27:08;99660.63;;;19.73;79.63
56270;BME280;42176;43.240;27.880;2022-11-20T12:30:12;99650.09;;;19.70;79.63
56270;BME280;42176;43.240;27.880;2022-11-20T12:50:05;99649.88;;;19.73;79.33
56270;BME280;42176;43.240;27.880;2022-11-20T12:57:49;99661.59;;;19.72;79.21
56270;BME280;42176;43.240;27.880;2022-11-20T13:00:22;99668.78;;;19.71;78.97
56270;BME280;42176;43.240;27.880;2022-11-20T13:03:12;99654.38;;;19.72;78.65
56270;BME280;42176;43.240;27.880;2022-11-20T13:08:29;99665.25;;;19.71;78.47
56270;BME280;42176;43.240;27.880;2022-11-20T13:16:41;99653.53;;;19.72;78.81
56270;BME280;42176;43.240;27.880;2022-11-20T13:19:12;99651.81;;;19.71;79.21
56270;BME280;42176;43.240;27.880;2022-11-20T13:21:39;99635.47;;;19.74;79.37
56270;BME280;42176;43.240;27.880;2022-11-20T13:24:07;99643.53;;;19.74;78.85
56270;BME280;42176;43.240;27.880;2022-11-20T13:26:33;99639.97;;;19.73;79.01
56270;BME280;42176;43.240;27.880;2022-11-20T13:29:12;99640.72;;;19.75;78.68
56270;BME280;42176;43.240;27.880;2022-11-20T13:31:44;99647.97;;;19.75;78.79
56270;BME280;42176;43.240;27.880;2022-11-20T13:34:14;99633.00;;;19.71;78.96
56270;BME280;42176;43.240;27.880;2022-11-20T13:36:52;99641.06;;;19.71;79.16
56270;BME280;42176;43.240;27.880;2022-11-20T13:39:32;99642.78;;;19.72;79.07
56270;BME280;42176;43.240;27.880;2022-11-20T13:42:00;99635.22;;;19.64;79.17
56270;BME280;42176;43.240;27.880;2022-11-20T13:44:37;99644.16;;;19.65;79.09
56270;BME280;42176;43.240;27.880;2022-11-20T13:47:03;99645.53;;;19.57;79.51
56270;BME280;42176;43.240;27.880;2022-11-20T13:49:39;99658.84;;;19.46;80.07
56270;BME280;42176;43.240;27.880;2022-11-20T13:55:31;99652.34;;;19.36;81.05
56270;BME280;42176;43.240;27.880;2022-11-20T14:00:43;99638.13;;;19.21;81.81
56270;BME280;42176;43.240;27.880;2022-11-20T14:03:20;99644.13;;;19.24;81.33
56270;BME280;42176;43.240;27.880;2022-11-20T14:05:59;99642.63;;;19.20;81.87
56270;BME280;42176;43.240;27.880;2022-11-20T14:08:37;99642.81;;;19.17;82.29
56270;BME280;42176;43.240;27.880;2022-11-20T14:16:20;99647.06;;;19.07;82.70
56270;BME280;42176;43.240;27.880;2022-11-20T14:18:46;99650.91;;;19.02;82.87
56270;BME280;42176;43.240;27.880;2022-11-20T14:21:21;99650.06;;;19.02;83.04
56270;BME280;42176;43.240;27.880;2022-11-20T14:23:47;99648.22;;;19.02;83.19
56270;BME280;42176;43.240;27.880;2022-11-20T14:26:14;99637.59;;;19.01;83.18
56270;BME280;42176;43.240;27.880;2022-11-20T14:28:42;99636.72;;;19.00;83.61
56270;BME280;42176;43.240;27.880;2022-11-20T14:31:23;99636.06;;;18.97;83.12
56270;BME280;42176;43.240;27.880;2022-11-20T14:33:51;99635.38;;;18.93;83.50
56270;BME280;42176;43.240;27.880;2022-11-20T14:36:20;99626.41;;;18.94;83.72